Cub Run, Kentucky
Current Conditions -  °F | °C
As of 3:35 AM on Sunday 26 Oct 2014 (Local Time) from KGLW Reporting Station
Moderate Fog Moderate Fog  
Wind Chill: 48°   Ceiling: 100
Heat Index: 48°   Visibility: 0mi
Dew Point: 48°   Wind: 0mph
Humidity: 100%   Direction: NA
Pressure: 30"   Gusts: NA
Location:  37.31°N, 86.06°W
Report Text: KGLW 260835Z AUTO 00000KT M1/4SM FG OVC001 09/09 A3000 RMK AO2 T00900090
Loading
Personal Weather Stations






























Interactive Weather Map
Tropical Storm Tracking
New forecast layout! Learn more

10-Day Weather Forecast

Advertisements
Track Severe Weather on mobile